Index of /HVSC/MUSICIANS/Z/Zyron

[ICO]NameLast modifiedSizeDescription

[DIR]Parent Directory  -  
[SND]5_Souls.sid21-Jan-2007 20:38 4.5K 
[SND]42_Degrees.sid21-Jan-2007 20:38 2.4K 
[SND]A_Long_Time.sid21-Jan-2007 20:38 2.9K 
[SND]A_Nice_Day.sid21-Jan-2007 20:38 2.2K 
[SND]A_Trapdoor.sid21-Jan-2007 20:38 3.8K 
[SND]Access_Time.sid21-Jan-2007 20:38 3.3K 
[SND]Aching.sid21-Jan-2007 20:38 3.4K 
[SND]Actintic_Light.sid21-Jan-2007 20:38 3.7K 
[SND]Ambient_Whale.sid21-Jan-2007 20:38 3.6K 
[SND]Amylnitrate.sid21-Jan-2007 20:38 4.1K 
[SND]An_Own_Moon.sid21-Jan-2007 20:38 3.4K 
[SND]An_Tea_as_Sea.sid23-Jun-2012 15:29 3.6K 
[SND]Andorgomedia.sid10-Jul-2016 13:32 2.1K 
[SND]Anxious_Face.sid21-Jan-2007 20:38 2.8K 
[SND]April_Fool.sid21-Jan-2007 20:38 4.2K 
[SND]Arkanoid_Tune.sid10-Jul-2016 13:32 2.1K 
[SND]Atmosphere.sid21-Jan-2007 20:38 2.6K 
[SND]Atomic_Brain.sid21-Jan-2007 20:38 2.8K 
[SND]Avalanche.sid21-Jan-2007 20:38 2.6K 
[SND]Azimuth.sid21-Jan-2007 20:38 3.4K 
[SND]Bathtubfuck.sid21-Jan-2007 20:38 3.4K 
[SND]Beachparty.sid21-Jan-2007 20:38 2.6K 
[SND]Beerdough.sid09-Nov-2008 22:57 3.2K 
[SND]Before_Life.sid10-Jul-2016 13:32 2.3K 
[SND]Being_Rescued.sid21-Jan-2007 20:38 4.1K 
[SND]Below_Us.sid21-Jan-2007 20:38 3.1K 
[SND]Belsebub.sid21-Jan-2007 20:38 2.9K 
[SND]Bifurcation.sid21-Jan-2007 20:38 3.2K 
[SND]Black_Darkness.sid10-Jul-2016 13:32 2.4K 
[SND]Black_Dreams.sid21-Jan-2007 20:38 3.5K 
[SND]Black_Magic_2.sid21-Jan-2007 20:38 4.1K 
[SND]Black_Orbit.sid21-Jan-2007 20:38 3.0K 
[SND]Bladerunner.sid21-Jan-2007 20:38 2.9K 
[SND]Blue_Sky.sid21-Jan-2007 20:38 2.6K 
[SND]Bodyfunk.sid21-Dec-2012 19:47 3.6K 
[SND]Bouncy_Balls.sid22-Dec-2011 21:54 30K 
[SND]Brazen_Head.sid21-Jan-2007 20:38 3.5K 
[SND]Breezeway.sid21-Jan-2007 20:38 3.1K 
[SND]Brightness.sid21-Jan-2007 20:38 2.5K 
[SND]Buffoon.sid21-Jan-2007 20:38 3.4K 
[SND]Burning_Candles.sid21-Jan-2007 20:38 3.2K 
[SND]Bus-stop.sid21-Jan-2007 20:38 3.5K 
[SND]But_Not_Tonight.sid21-Jan-2007 20:38 4.3K 
[SND]Bystander.sid21-Jan-2007 20:38 3.5K 
[SND]C-Rash.sid27-Jun-2013 20:41 3.6K 
[SND]Calm_Surface.sid21-Jan-2007 20:38 3.8K 
[SND]Capsule.sid21-Jan-2007 20:38 2.5K 
[SND]Carcrhazsch.sid21-Jan-2007 20:38 3.3K 
[SND]Carried_Away.sid21-Jan-2007 20:38 3.8K 
[SND]Celestial_Voices.sid21-Dec-2012 19:47 3.8K 
[SND]Circle.sid21-Jan-2007 20:38 2.6K 
[SND]Circumflex.sid21-Jan-2007 20:38 3.0K 
[SND]Clowns_Insane.sid21-Jan-2007 20:38 3.7K 
[SND]Coercivity.sid21-Jan-2007 20:38 3.5K 
[SND]Coloured_Shape.sid21-Jan-2007 20:38 4.1K 
[SND]Com-Hi.sid21-Jan-2007 20:38 3.1K 
[SND]Come_Follow.sid21-Jan-2007 20:38 4.1K 
[SND]Conclusion.sid10-Jul-2016 13:32 5.2K 
[SND]Conclusion_remix.sid21-Jan-2007 20:38 3.1K 
[SND]Constellation.sid21-Jan-2007 20:38 3.1K 
[SND]Cool_Tempo.sid21-Jan-2007 20:38 6.9K 
[SND]Coombe.sid21-Jan-2007 20:38 3.5K 
[SND]Cosmotron.sid10-Jul-2016 13:32 2.9K 
[SND]Cottage_Cheese.sid21-Jan-2007 20:38 3.4K 
[SND]Cotton_Brain.sid21-Jan-2007 20:38 4.1K 
[SND]Countryside.sid21-Jan-2007 20:38 2.3K 
[SND]Critical_War.sid21-Jan-2007 20:38 2.3K 
[SND]Cryogenic.sid21-Jan-2007 20:38 2.5K 
[SND]Cybernetics.sid21-Jan-2007 20:38 3.0K 
[SND]Daft_and_Potty.sid21-Jan-2007 20:38 3.8K 
[SND]Daisy_Wheel.sid21-Jan-2007 20:38 3.1K 
[SND]Danger_Field.sid21-Jan-2007 20:38 2.6K 
[SND]Dark_Side.sid21-Jan-2007 20:38 3.8K 
[SND]Darkest_Sea.sid21-Jan-2007 20:38 4.2K 
[SND]Deceased.sid21-Jan-2007 20:38 3.9K 
[SND]Deep_Meaning.sid21-Jan-2007 20:38 4.8K 
[SND]Degausser.sid21-Jan-2007 20:38 2.9K 
[SND]Dense_Index.sid21-Jan-2007 20:38 3.7K 
[SND]Departure.sid21-Dec-2012 19:47 3.6K 
[SND]Depressed.sid21-Jan-2007 20:38 7.2K 
[SND]Depth_of_Sea.sid25-Dec-2009 00:40 3.0K 
[SND]Dicapsych.sid21-Jan-2007 20:38 4.1K 
[SND]Digital_Force_1.sid21-Jan-2007 20:38 7.3K 
[SND]Digital_Force_2.sid10-Jul-2016 13:32 5.6K 
[SND]Digital_Force_3.sid21-Jan-2007 20:38 6.7K 
[SND]Digital_Force_4.sid10-Jul-2016 13:32 2.9K 
[SND]Digital_Force_98.sid21-Jan-2007 20:38 5.1K 
[SND]Digital_Force_Final.sid10-Jul-2016 13:32 2.8K 
[SND]Dim_Horizon.sid21-Jan-2007 20:38 4.1K 
[SND]Dimple_Din.sid21-Jan-2007 20:38 4.1K 
[SND]Disaster.sid21-Jan-2007 20:38 2.7K 
[SND]Disclosed.sid21-Jan-2007 20:38 3.8K 
[SND]Discovery_Trip.sid10-Jul-2016 13:32 3.0K 
[SND]Dish_Aerial.sid21-Jan-2007 20:38 4.1K 
[SND]Distant_Echoes.sid21-Jan-2007 20:38 4.0K 
[SND]Downstreams.sid21-Jan-2007 20:38 2.5K 
[SND]Dreaming.sid10-Jul-2016 13:32 2.1K 
[SND]Dreamland.sid21-Jan-2007 20:38 2.8K 
[SND]Driftwood.sid21-Dec-2012 19:47 4.1K 
[SND]Drizzle.sid25-Dec-2009 00:40 2.8K 
[SND]Duck-Hunt.sid21-Jan-2007 20:38 2.9K 
[SND]Dunkendatten.sid22-Aug-2009 19:58 2.5K 
[SND]Duplex_Soul.sid21-Jan-2007 20:38 2.7K 
[SND]E_O_R_Echoes_of_Rapture.sid21-Jan-2007 20:38 3.1K 
[SND]Easy_Living.sid21-Jan-2007 20:38 6.1K 
[SND]Empty_Boats.sid21-Jan-2007 20:38 4.0K 
[SND]Energic_Malu.sid21-Jan-2007 20:38 2.7K 
[SND]Entrance.sid10-Jul-2016 13:32 2.5K 
[SND]Entrance_v1_0.sid10-Jul-2016 13:32 2.3K 
[SND]Evolution.sid21-Jan-2007 20:38 3.0K 
[SND]Extazcia.sid21-Jan-2007 20:38 4.2K 
[SND]Extra_Ignored.sid21-Jan-2007 20:38 3.2K 
[SND]F_i_s_h_e_s.sid21-Jan-2007 20:38 3.5K 
[SND]Faithful_Zone.sid21-Jan-2007 20:38 6.4K 
[SND]Fantasy_Trip.sid21-Jan-2007 20:38 3.2K 
[SND]Fascia_Plate.sid21-Jan-2007 20:38 3.3K 
[SND]Fast_Lane.sid10-Jul-2016 13:32 4.9K 
[SND]Fast_Lane_remix.sid21-Jan-2007 20:38 2.0K 
[SND]Fearless_Dream.sid21-Jan-2007 20:38 5.5K 
[SND]Feathers.sid21-Jan-2007 20:38 3.7K 
[SND]Feethunter.sid21-Jan-2007 20:38 3.3K 
[SND]Fighting.sid21-Jan-2007 20:38 7.5K 
[SND]Filtermezzo.sid23-Jun-2012 15:28 2.7K 
[SND]Flashbacks.sid21-Jan-2007 20:38 4.0K 
[SND]Flesh_and_Blood.sid21-Jan-2007 20:38 3.9K 
[SND]Floating.sid21-Dec-2012 19:47 4.1K 
[SND]Fly_on_the_Windscreen.sid21-Jan-2007 20:38 4.1K 
[SND]Flying_G_P.sid21-Dec-2013 19:17 3.1K 
[SND]Flying_Glued.sid09-Mar-2008 20:43 2.6K 
[SND]Foolscape.sid21-Jan-2007 20:38 2.9K 
[SND]For_Anarchy.sid21-Jan-2007 20:38 3.5K 
[SND]For_Black_Code_Design.sid21-Jan-2007 20:38 3.6K 
[SND]For_Domination.sid21-Jan-2007 20:38 4.1K 
[SND]For_Equinoxe.sid21-Jan-2007 20:38 3.4K 
[SND]For_Jamaica_2.sid21-Jan-2007 20:38 3.8K 
[SND]For_React.sid21-Jan-2007 20:38 3.9K 
[SND]For_Skyhawk.sid21-Jan-2007 20:38 3.1K 
[SND]For_Skyhigh.sid21-Jan-2007 20:38 4.1K 
[SND]For_Twoflower.sid21-Jan-2007 20:38 2.8K 
[SND]For_Update.sid21-Jan-2007 20:38 4.0K 
[SND]Forbidden_City.sid10-Jul-2016 13:32 2.9K 
[SND]Four_and_Twenty.sid21-Jan-2007 20:38 4.1K 
[SND]Freeway.sid10-Jul-2016 13:32 4.9K 
[SND]Freeway_92.sid21-Jan-2007 20:38 3.0K 
[SND]Frequences.sid21-Jan-2007 20:38 3.4K 
[SND]Frozen_Water.sid21-Jan-2007 20:38 4.9K 
[SND]Funk-a-Duck.sid21-Jan-2007 20:38 3.9K 
[SND]Furious_Path.sid21-Jan-2007 20:38 3.8K 
[SND]Galaxian_Contacts.sid21-Jan-2007 20:38 7.8K 
[SND]Galway-zax.sid21-Jan-2007 20:38 2.5K 
[SND]Gates_of_Dawn.sid21-Jan-2007 20:38 4.1K 
[SND]Getting_Out.sid21-Jan-2007 20:38 3.6K 
[SND]Ghostsmile.sid21-Jan-2007 20:38 3.4K 
[SND]Gleeful.sid21-Jan-2007 20:38 3.9K 
[SND]Glimpses.sid21-Jan-2007 20:38 3.5K 
[SND]Gnome.sid21-Jan-2007 20:38 4.1K 
[SND]Gordons_Gin.sid21-Jan-2007 20:38 3.2K 
[SND]Great_Outdoors.sid21-Jan-2007 20:38 3.8K 
[SND]Green_Fields.sid21-Jan-2007 20:38 3.3K 
[SND]Guinea-Pig.sid21-Jan-2007 20:38 3.9K 
[SND]Guinness.sid21-Jan-2007 20:38 2.4K 
[SND]HZ_Light_Party.sid21-Jan-2007 20:38 4.1K 
[SND]Hallucinations.sid23-Dec-2010 21:06 3.4K 
[SND]Hallway.sid21-Jan-2007 20:38 2.0K 
[SND]Happy_Journey.sid10-Jul-2016 13:32 6.4K 
[SND]Happy_Journey_remix.sid21-Jan-2007 20:38 3.5K 
[SND]Happy_Sunday.sid21-Jan-2007 20:38 2.3K 
[SND]Hate_Soundtrack.sid10-Jul-2016 13:32 2.8K 
[SND]Hazelnuts.sid21-Jan-2007 20:38 3.5K 
[SND]Hidden_Prominence.sid09-Mar-2008 20:43 4.1K 
[SND]High_Density.sid21-Jan-2007 20:38 4.1K 
[SND]High_Hopes.sid21-Dec-2012 19:47 4.1K 
[SND]Hot_Asphalt.sid21-Dec-2012 19:47 4.1K 
[SND]Hot_Snow.sid21-Jan-2007 20:38 2.4K 
[SND]Hovercraft.sid21-Jan-2007 20:38 4.1K 
[SND]Hovering.sid21-Jan-2007 20:38 3.9K 
[SND]Huge_Loss_Big.sid21-Jan-2007 20:38 3.6K 
[SND]Hunt_for_Me.sid21-Dec-2012 19:47 4.1K 
[SND]Hybrid_Stone.sid21-Jan-2007 20:38 3.7K 
[SND]Hydrology.sid21-Jan-2007 20:38 2.8K 
[SND]IEC_Type_1.sid21-Dec-2012 19:47 4.0K 
[SND]Im_Happy.sid10-Jul-2016 13:32 5.1K 
[SND]In-july.sid25-Jun-2010 19:58 3.1K 
[SND]In_It.sid27-Jun-2013 20:41 4.8K 
[SND]In_the_Night.sid21-Jan-2007 20:38 3.4K 
[SND]Inconspicious.sid21-Jan-2007 20:38 3.4K 
[SND]Inferior_Figures.sid21-Jan-2007 20:38 6.1K 
[SND]Infiltration.sid21-Jan-2007 20:38 3.6K 
[SND]Infix_Code.sid21-Jan-2007 20:38 3.8K 
[SND]Injection.sid21-Jan-2007 20:38 4.1K 
[SND]Insulted_Eye.sid21-Jan-2007 20:38 2.0K 
[SND]Internal_Music.sid21-Jan-2007 20:38 4.1K 
[SND]Into_the_Sky.sid21-Jan-2007 20:38 3.3K 
[SND]Intoxication.sid21-Jan-2007 20:38 3.3K 
[SND]Intro-remix.sid21-Jan-2007 20:38 3.4K 
[SND]Ive_Lost_It.sid21-Jan-2007 20:37 2.6K 
[SND]Jamaica_Zak_1.sid21-Jan-2007 20:38 3.3K 
[SND]Jog_Along.sid21-Jan-2007 20:38 3.5K 
[SND]Kaffe_LCP_2005.sid25-Dec-2009 00:40 3.3K 
[SND]Karnaugh_Map.sid21-Jan-2007 20:38 3.5K 
[SND]Kimball_Tag.sid21-Jan-2007 20:38 3.4K 
[SND]Kingdom.sid21-Jan-2007 20:38 3.8K 
[SND]LCP_2000.sid21-Jan-2007 20:38 2.3K 
[SND]Lame.sid21-Jan-2007 20:38 7.9K 
[SND]Landscape.sid21-Jan-2007 20:38 3.0K 
[SND]Late_Lament.sid21-Jan-2007 20:38 4.1K 
[SND]Latency.sid21-Jan-2007 20:38 3.1K 
[SND]Latency_compo_version.sid23-Jun-2012 15:28 9.6K 
[SND]Lazy_Day.sid21-Dec-2012 19:47 3.6K 
[SND]Leaving_Earth.sid21-Dec-2012 19:47 3.2K 
[SND]Lifestyle.sid21-Jan-2007 20:38 4.1K 
[SND]Lonely_Season.sid10-Jul-2016 13:32 5.0K 
[SND]Lonely_Season_remix.sid21-Jan-2007 20:38 2.7K 
[SND]Lost_Train.sid21-Jan-2007 20:38 2.5K 
[SND]Lucky_Strike.sid21-Jan-2007 20:38 3.4K 
[SND]Lunar_Landscape.sid21-Jan-2007 20:38 3.2K 
[SND]Magic_Ceremony.sid21-Jan-2007 20:38 6.2K 
[SND]Malfunction.sid21-Jan-2007 20:38 3.4K 
[SND]Man_of_Mystery.sid21-Jan-2007 20:38 3.0K 
[SND]Maria.sid21-Jan-2007 20:38 8.3K 
[SND]Mars_Mission.sid21-Jan-2007 20:38 3.5K 
[SND]Master_Ferro.sid21-Jan-2007 20:38 3.1K 
[SND]Maximum.sid21-Jan-2007 20:38 8.4K 
[SND]Maximum_Overdrive.sid21-Jan-2007 20:38 3.3K 
[SND]Maximum_remix.sid21-Jan-2007 20:38 3.1K 
[SND]Maybe_Not.sid21-Jan-2007 20:38 3.1K 
[SND]Meatballs.sid21-Jan-2007 20:38 3.4K 
[SND]Meeting_It.sid21-Jan-2007 20:38 4.0K 
[SND]Megamix_91.sid21-Jan-2007 20:38 5.0K 
[SND]Midnight_Row.sid21-Jan-2007 20:38 3.9K 
[SND]Molecules.sid21-Jan-2007 20:38 3.3K 
[SND]Mollusc.sid21-Jan-2007 20:38 4.0K 
[SND]Monday.sid21-Dec-2012 19:47 3.6K 
[SND]Moon_Shadows.sid21-Jan-2007 20:38 2.2K 
[SND]Moving_Rhythm.sid21-Dec-2012 19:47 4.1K 
[SND]Mushroom_Much_Room.sid21-Jan-2007 20:38 3.7K 
[SND]Musty_Fusty.sid21-Jan-2007 20:38 3.7K 
[SND]My_Mine.sid10-Jul-2016 13:32 2.6K 
[SND]My_Shelter.sid21-Jan-2007 20:38 3.2K 
[SND]Nature_Endings.sid21-Jan-2007 20:38 6.2K 
[SND]Never_Forget.sid21-Jan-2007 20:38 2.4K 
[SND]New_Daylight.sid21-Jan-2007 20:38 2.7K 
[SND]Nightmares.sid21-Jan-2007 20:38 2.2K 
[SND]Ninja_Remix.sid21-Jan-2007 20:38 7.9K 
[SND]No_Dimension.sid21-Jan-2007 20:38 3.7K 
[SND]No_Idea.sid21-Jan-2007 20:38 3.4K 
[SND]Not_Again.sid21-Jan-2007 20:38 2.4K 
[SND]Nothing_Left.sid21-Jan-2007 20:38 2.2K 
[SND]Numb_the_Bliss.sid09-Mar-2008 20:43 3.9K 
[DIR]Nylon/29-Dec-2010 20:25 -  
[SND]Obsolete.sid21-Jan-2007 20:38 2.8K 
[SND]Occasion.sid21-Jan-2007 20:38 2.5K 
[SND]Oloopat_kort.sid21-Jan-2007 20:38 3.7K 
[SND]On_It.sid21-Jan-2007 20:38 3.9K 
[SND]Once_Upon_a_Time.sid23-Jun-2012 15:29 3.8K 
[SND]One_Man_and_Boris.sid09-Mar-2008 20:43 3.8K 
[SND]One_Way_Road.sid21-Jan-2007 20:38 2.5K 
[SND]Opera_Omnia_4_Intro.sid25-Jun-2010 19:58 1.8K 
[SND]Optimizing.sid21-Jan-2007 20:38 6.7K 
[SND]Orbiting.sid21-Jan-2007 20:38 3.5K 
[SND]Other_Side.sid21-Jan-2007 20:38 3.2K 
[SND]Out_of_Gas.sid25-Dec-2009 00:40 2.5K 
[SND]Outer_Space.sid21-Jan-2007 20:38 4.0K 
[SND]Over_Here.sid21-Jan-2007 20:38 3.1K 
[SND]Paranoia.sid21-Jan-2007 20:38 7.6K 
[SND]Party_93.sid21-Jan-2007 20:38 4.5K 
[SND]Party_93_edit.sid21-Jan-2007 20:38 4.1K 
[SND]Peeping_Tom.sid21-Jan-2007 20:38 3.9K 
[SND]Permutation.sid21-Jan-2007 20:38 3.7K 
[SND]Pie_Chart.sid21-Jan-2007 20:38 3.3K 
[SND]Popcorn.sid21-Jan-2007 20:38 3.5K 
[SND]Potato_Chips.sid23-Dec-2010 21:06 3.5K 
[SND]Precocious.sid21-Jan-2007 20:38 3.7K 
[SND]Premix_Image.sid21-Jan-2007 20:38 3.0K 
[SND]Procession.sid21-Jan-2007 20:38 3.1K 
[SND]Propaganda.sid21-Jan-2007 20:38 3.7K 
[SND]Pure_LCPWibes.sid21-Jan-2007 20:38 3.5K 
[SND]Quad.sid21-Jan-2007 20:38 4.1K 
[SND]Qualm_of_Zulu.sid21-Jan-2007 20:38 3.9K 
[SND]Quaternary.sid21-Jan-2007 20:38 2.7K 
[SND]Questionmark.sid21-Jan-2007 20:38 3.4K 
[SND]Quickie.sid07-Jun-2007 21:12 4.1K 
[SND]Radical_Wave.sid21-Jan-2007 20:38 2.4K 
[SND]Radiowaves.sid21-Jan-2007 20:38 3.6K 
[SND]Rain_Forest.sid21-Jan-2007 20:38 4.1K 
[SND]Rainbow_Bird.sid21-Jan-2007 20:38 3.1K 
[SND]Random_Carpet.sid21-Jan-2007 20:38 4.1K 
[SND]Rapid_Mind.sid21-Jan-2007 20:38 2.2K 
[SND]Reactor_One.sid21-Jan-2007 20:38 2.6K 
[SND]Realistic_Facts.sid10-Jul-2016 13:32 2.2K 
[SND]Reason_Man.sid21-Jan-2007 20:38 3.7K 
[SND]Remember_Me.sid21-Jan-2007 20:38 3.2K 
[SND]Rememberance.sid21-Jan-2007 20:38 6.5K 
[SND]Reverie.sid21-Jan-2007 20:38 3.4K 
[SND]Revoked_Frenzy.sid21-Jan-2007 20:38 5.0K 
[SND]Rising_Sun.sid21-Jan-2007 20:38 3.0K 
[SND]River.sid21-Jan-2007 20:38 3.4K 
[SND]Route_6581.sid23-Jun-2012 15:28 3.3K 
[SND]Run_Free.sid21-Dec-2012 19:47 4.1K 
[SND]Rush_and_Tear.sid21-Jan-2007 20:38 4.1K 
[SND]Russian_Hitsong.sid10-Jul-2016 13:32 2.4K 
[SND]Saturation.sid21-Jan-2007 20:38 2.6K 
[SND]Saturn_Reigns.sid21-Jan-2007 20:38 3.6K 
[SND]Saturn_Rings.sid21-Jan-2007 20:38 3.7K 
[SND]Script_Zak_1.sid21-Jan-2007 20:38 4.0K 
[SND]Script_Zak_2.sid21-Jan-2007 20:38 4.0K 
[SND]Second_Touch.sid21-Jan-2007 20:38 2.7K 
[SND]Sex-Lunatic.sid21-Jan-2007 20:38 4.0K 
[SND]Shoplifting.sid21-Jan-2007 20:38 2.9K 
[SND]Short_Beauty.sid21-Jan-2007 20:38 3.1K 
[SND]Short_Story.sid10-Jul-2016 13:32 4.7K 
[SND]Short_Zak.sid21-Jan-2007 20:38 2.4K 
[SND]Shotgun.sid10-Jul-2016 13:32 2.9K 
[SND]Shouldnt_Have_Done_That.sid21-Jan-2007 20:38 4.0K 
[SND]Shutdown.sid21-Jan-2007 20:38 3.3K 
[SND]Slashed_Zero.sid21-Jan-2007 20:38 3.3K 
[SND]Slowmotion.sid21-Dec-2012 19:47 4.1K 
[SND]Smagma_11.sid21-Jan-2007 20:38 3.0K 
[SND]Smashzak.sid21-Jan-2007 20:38 3.8K 
[SND]Smiling_Face.sid21-Jan-2007 20:38 3.3K 
[SND]Snakepit.sid21-Jan-2007 20:38 4.1K 
[SND]Snatch_of_Fury.sid21-Dec-2012 19:47 3.1K 
[SND]Snowman.sid21-Jan-2007 20:38 2.8K 
[SND]So_Alone.sid21-Jan-2007 20:38 3.8K 
[SND]Solar_Energy.sid21-Jan-2007 20:38 3.8K 
[SND]Some_Mood.sid24-Jun-2011 22:09 3.6K 
[SND]Something_Broke.sid21-Jan-2007 20:38 3.6K 
[SND]Space_Voyage.sid21-Jan-2007 20:38 3.3K 
[SND]Spaceflower.sid24-Jun-2011 22:09 3.0K 
[SND]Sparse_Array.sid21-Jan-2007 20:38 3.7K 
[SND]State_of_Art.sid25-Dec-2009 00:40 3.3K 
[SND]Station_Blues.sid21-Jan-2007 20:38 4.1K 
[SND]Strange_Hour.sid21-Jan-2007 20:38 3.2K 
[SND]Stressfaktor.sid24-Jun-2011 22:09 4.0K 
[SND]String-Bag.sid21-Jan-2007 20:38 3.5K 
[SND]Strolling.sid21-Jan-2007 20:38 4.0K 
[SND]Studioline.sid21-Jan-2007 20:38 3.4K 
[SND]Submarine.sid21-Jan-2007 20:38 3.5K 
[SND]Subplot.sid21-Jan-2007 20:38 4.1K 
[SND]Subway.sid21-Jan-2007 20:38 5.1K 
[SND]Suffix.sid21-Jan-2007 20:38 3.4K 
[SND]Summer_Night.sid21-Jan-2007 20:38 2.5K 
[SND]Sun_Outage.sid21-Jan-2007 20:38 2.8K 
[SND]Sunset_Dreams.sid21-Jan-2007 20:38 4.1K 
[SND]Suntan_Flower.sid21-Jan-2007 20:38 4.2K 
[SND]Symphony.sid21-Jan-2007 20:38 2.8K 
[SND]Tape_Measure.sid21-Jan-2007 20:38 2.4K 
[SND]Technobeat.sid21-Jan-2007 20:38 3.0K 
[SND]Telstar.sid21-Jan-2007 20:38 3.8K 
[SND]Terrawatt.sid21-Jan-2007 20:38 2.5K 
[SND]Tesla_Damage.sid21-Jan-2007 20:38 3.5K 
[SND]Threshold.sid21-Dec-2012 19:47 4.1K 
[SND]Tic-Tac-Toe.sid21-Jan-2007 20:38 4.1K 
[SND]Tilt_and_Swivel.sid21-Jan-2007 20:38 2.6K 
[SND]Tip-music.sid21-Jan-2007 20:38 3.7K 
[SND]Topology.sid21-Jan-2007 20:38 2.8K 
[SND]Torchure.sid21-Jan-2007 20:38 3.0K 
[SND]Torchure_2004.sid21-Jan-2007 20:38 3.0K 
[SND]Transmission.sid21-Jan-2007 20:38 3.4K 
[SND]Trapdoor_Part_2.sid21-Jan-2007 20:38 4.2K 
[SND]Trapdoor_Part_2_remix.sid22-Dec-2015 20:43 4.0K 
[SND]Tuesday.sid23-Jun-2012 15:29 4.1K 
[SND]Tug_of_War.sid21-Jan-2007 20:38 4.1K 
[SND]Understand_Me.sid25-Jun-2010 19:58 4.1K 
[SND]Unexisting.sid21-Jan-2007 20:38 3.2K 
[SND]Vem_Fan_Vet.sid21-Jan-2007 20:38 3.2K 
[SND]Visual_Rain.sid21-Jan-2007 20:38 2.6K 
[SND]Walk.sid21-Jan-2007 20:38 3.5K 
[SND]Waterdance.sid21-Jan-2007 20:38 4.1K 
[SND]Well.sid21-Jan-2007 20:38 3.2K 
[SND]What_the.sid21-Jan-2007 20:38 3.5K 
[SND]Whirlpool.sid21-Jan-2007 20:38 3.5K 
[SND]Whos_There.sid10-Jul-2016 13:32 2.3K 
[SND]Why_Name_It.sid21-Jan-2007 20:38 2.6K 
[SND]Wimp_Toy.sid21-Jan-2007 20:38 3.2K 
[SND]Wishing.sid10-Jul-2016 13:32 5.1K 
[SND]Wishing_Remix.sid21-Jan-2007 20:38 2.3K 
[SND]Wobbler.sid21-Jan-2007 20:38 3.2K 
[SND]Wonderful_Life.sid10-Jul-2016 13:32 6.6K 
[SND]Woodpulp.sid21-Jan-2007 20:38 3.3K 
[SND]World-war_3.sid21-Jan-2007 20:38 2.2K 
[SND]X-Mas_Mix.sid21-Jan-2007 20:38 13K 
[SND]Yellow_Rain.sid21-Jan-2007 20:38 5.9K 
[SND]Yellow_Rain_remix.sid21-Jan-2007 20:38 3.4K 
[SND]You_Said.sid21-Jan-2007 20:38 3.8K 
[SND]Zodiac_Zak.sid21-Jan-2007 20:38 3.7K 
[SND]Zombie_Attack.sid21-Jan-2007 20:38 6.2K 
[SND]Zyrons_Jam.sid21-Jan-2007 20:38 2.9K 

Apache/2.2.22 (Debian) Server at www.c64.org Port 80